Airfield :
LOGIN :

Register | Disclaimer

   EN    FR    IT 

 










Legend :    VFR   Marginal VFR   IFR   Intensive IFR   Very Intensive IFR
Visi :
Ceiling :
>= 8 km
>= 3000ft
5 to 8 km
1000 to 3000 ft
1500m to 5 km
500 to 1000 ft
800 to 1500m
200 to 500 ft
< 800m
< 200 ft
Symbols :   Thunderstorms  Fog  Heavy snow  Heavy precipitations  Wind > 20 kt
SIGMETs :     Misc.  Thunderstorms  Icing  Turbulence  Mountain Waves  Volcanic Ashes






- Airport Elevation : 755 ft
- IATA code : KSC


LZKZ - Kosice

CURRENT METAR :
  • 301030Z 36022KT 9999 FEW035 SCT045 BKN060 01/M10 Q1019 NOSIG

EXPIRED METARs :
  • 301000Z 01021KT 9999 FEW030 BKN060 01/M08 Q1018 NOSIG
  • 300930Z 01019KT 9999 FEW020 SCT032 BKN050 00/M06 Q1018 NOSIG
  • 300900Z 02016KT 9999 -SN SCT020 BKN030 M00/M03 Q1018 NOSIG
  • 300830Z 02020KT 4000 1800S -SN FEW015 SCT020 OVC030 M01/M03 Q1018 TEMPO 1400 SN
  • 300816Z 02019KT 1400 R01/1900N -SN FEW014 SCT018 OVC025 M01/M02 Q1018
  • 300808Z 01021KT 2000 -SN FEW017 SCT021 OVC030 M00/M03 Q1018

TAF AMD TAF LZKZ
Valid from the 30 at 07:00 until the 31 at 06:00 UTC


300708Z 3007/3106 01020KT 9999 FEW025 BKN050
TEMPO 3007/3012 1500 SHSN SCT015 OVC035
TEMPO 3007/3017 02025G35KT
PROB40
TEMPO 3008/3014 01030G40KT
BECMG 3020/3022 03007KT
BECMG 3104/3106 VRB02KT



MET'MAP, your aeronautical weather chart ! - Copyright ORBIFLY December 2007 - Disclaimer

ORBIFLY MET'MAP TEAM :

Programming & Development : Alexandra Zaïnal
Concept & original design : Baudouin d'Aumeries
Assistance for programming : Marc-Olivier Méhu
Technical & hardware support : Manuel Goepfert

Contact : metmap@orbifly.com




SOURCES & CREDITS :

   NOAA